createdAt,value
2023-05-04T00:02:45.670Z,7.11
2023-05-04T00:06:48.417Z,7.07
2023-05-04T00:10:51.007Z,7.08
2023-05-04T00:14:54.899Z,7.04
2023-05-04T00:18:57.539Z,6.91
2023-05-04T00:23:00.160Z,6.79
2023-05-04T00:27:03.182Z,6.81
2023-05-04T00:31:07.323Z,6.81
2023-05-04T00:35:10.894Z,6.73
2023-05-04T00:39:14.413Z,6.66
2023-05-04T00:43:16.988Z,6.64
2023-05-04T00:47:21.446Z,6.60
2023-05-04T00:51:26.446Z,6.56
2023-05-04T00:55:30.106Z,6.46
2023-05-04T00:59:32.707Z,6.39
2023-05-04T01:03:36.930Z,6.34
2023-05-04T01:07:44.009Z,6.31
2023-05-04T01:11:54.736Z,6.32
2023-05-04T01:15:57.763Z,6.28
2023-05-04T01:20:02.184Z,6.22
2023-05-04T01:24:07.241Z,6.10
2023-05-04T01:28:18.130Z,6.02
2023-05-04T01:32:22.401Z,6.00
2023-05-04T01:36:25.436Z,5.99
2023-05-04T01:40:29.557Z,5.96
2023-05-04T01:44:32.214Z,5.96
2023-05-04T01:48:36.450Z,5.85
2023-05-04T01:52:39.081Z,5.83
2023-05-04T01:56:43.146Z,5.78
2023-05-04T02:00:46.316Z,5.74
2023-05-04T02:04:49.002Z,5.74
2023-05-04T02:08:52.142Z,5.67
2023-05-04T02:12:56.330Z,5.67
2023-05-04T02:16:58.985Z,5.61
2023-05-04T02:21:01.835Z,5.56
2023-05-04T02:25:04.599Z,5.55
2023-05-04T02:29:08.878Z,5.49
2023-05-04T02:33:11.687Z,5.45
2023-05-04T02:37:14.373Z,5.41
2023-05-04T02:41:17.244Z,5.35
2023-05-04T02:45:21.287Z,5.25
2023-05-04T02:49:23.942Z,5.14
2023-05-04T02:53:26.611Z,5.09
2023-05-04T02:57:29.282Z,5.10
2023-05-04T03:01:34.844Z,5.04
2023-05-04T03:05:37.857Z,4.97
2023-05-04T03:09:40.969Z,4.89
2023-05-04T03:13:43.640Z,4.87
2023-05-04T03:17:47.790Z,4.84
2023-05-04T03:21:50.814Z,4.88
2023-05-04T03:25:53.476Z,4.89
2023-05-04T03:29:56.176Z,4.87
2023-05-04T03:34:00.496Z,4.75
2023-05-04T03:38:03.149Z,4.69
2023-05-04T03:42:06.051Z,4.62
2023-05-04T03:46:08.757Z,4.58
2023-05-04T03:50:13.626Z,5.61
2023-05-04T03:54:16.262Z,6.09
2023-05-04T03:58:18.888Z,5.60
2023-05-04T04:02:21.606Z,5.17
2023-05-04T04:06:25.725Z,4.94
2023-05-04T04:10:28.361Z,4.81
2023-05-04T04:14:31.109Z,4.69
2023-05-04T04:18:36.178Z,4.65
2023-05-04T04:22:40.314Z,4.63
2023-05-04T04:26:43.169Z,4.66
2023-05-04T04:30:47.361Z,4.61
2023-05-04T04:34:50.184Z,4.63
2023-05-04T04:38:54.151Z,4.64
2023-05-04T04:42:56.909Z,4.68
2023-05-04T04:46:59.666Z,4.75
2023-05-04T04:51:02.463Z,4.86
2023-05-04T04:55:07.728Z,4.97
2023-05-04T04:59:10.636Z,5.08
2023-05-04T05:03:13.390Z,5.21
2023-05-04T05:07:16.535Z,5.29
2023-05-04T05:11:20.800Z,5.45
2023-05-04T05:15:23.426Z,5.63
2023-05-04T05:19:26.452Z,5.74
2023-05-04T05:23:29.241Z,5.79
2023-05-04T05:27:35.333Z,5.89
2023-05-04T05:31:37.959Z,5.98
2023-05-04T05:35:41.068Z,6.11
2023-05-04T05:39:43.707Z,6.31
2023-05-04T05:43:47.872Z,6.51
2023-05-04T05:47:51.864Z,6.68
2023-05-04T05:51:54.482Z,6.92
2023-05-04T05:55:57.109Z,7.14
2023-05-04T06:00:02.454Z,7.31
2023-05-04T06:04:05.384Z,7.59
2023-05-04T06:08:08.174Z,7.86
2023-05-04T06:12:13.478Z,8.16
2023-05-04T06:16:17.629Z,8.37
2023-05-04T06:20:21.768Z,8.73
2023-05-04T06:24:25.169Z,9.07
2023-05-04T06:28:30.155Z,9.33
2023-05-04T06:32:35.335Z,9.57
2023-05-04T06:36:38.169Z,9.82
2023-05-04T06:40:41.093Z,10.06
2023-05-04T06:44:43.774Z,10.25
2023-05-04T06:48:47.764Z,10.49
2023-05-04T06:52:50.927Z,10.67
2023-05-04T06:56:53.541Z,10.79
2023-05-04T07:00:57.343Z,10.90
2023-05-04T07:05:02.116Z,11.17
2023-05-04T07:09:06.262Z,11.16
2023-05-04T07:13:09.039Z,11.25
2023-05-04T07:17:11.874Z,11.41
2023-05-04T07:21:27.783Z,11.45
2023-05-04T07:25:31.923Z,11.72
2023-05-04T07:29:35.993Z,12.09
2023-05-04T07:33:40.267Z,12.07
2023-05-04T07:37:44.341Z,12.18
2023-05-04T07:41:49.492Z,12.13
2023-05-04T07:45:54.384Z,12.36
2023-05-04T07:49:57.039Z,12.48
2023-05-04T07:54:00.980Z,12.55
2023-05-04T07:58:03.700Z,12.97
2023-05-04T08:02:06.825Z,13.23
2023-05-04T08:06:09.571Z,13.62
2023-05-04T08:10:13.610Z,13.81
2023-05-04T08:14:16.170Z,13.92
2023-05-04T08:18:21.113Z,13.99
2023-05-04T08:22:24.066Z,14.30
2023-05-04T08:26:28.034Z,14.35
2023-05-04T08:30:33.213Z,14.46
2023-05-04T08:34:36.547Z,14.72
2023-05-04T08:38:39.207Z,14.95
2023-05-04T08:42:47.950Z,15.11
2023-05-04T08:46:53.515Z,15.05
2023-05-04T08:50:58.615Z,15.04
2023-05-04T08:55:03.320Z,15.16
2023-05-04T08:59:11.222Z,15.46
2023-05-04T09:03:17.435Z,15.71
2023-05-04T09:07:20.898Z,15.65
2023-05-04T09:11:23.867Z,15.95
2023-05-04T09:15:28.069Z,16.11
2023-05-04T09:19:36.229Z,16.08
2023-05-04T09:23:49.294Z,16.28
2023-05-04T09:27:54.284Z,16.46
2023-05-04T09:32:00.219Z,16.71
2023-05-04T09:36:14.954Z,16.65
2023-05-04T09:40:19.229Z,16.88
2023-05-04T09:44:23.355Z,17.08
2023-05-04T09:48:29.114Z,17.07
2023-05-04T09:52:34.245Z,17.25
2023-05-04T09:56:42.820Z,17.23
2023-05-04T10:00:48.183Z,17.28
2023-05-04T10:04:54.201Z,17.61
2023-05-04T10:08:57.452Z,17.47
2023-05-04T10:13:00.133Z,17.52
2023-05-04T10:17:15.424Z,17.73
2023-05-04T10:21:30.198Z,17.94
2023-05-04T10:25:52.667Z,17.82
2023-05-04T10:29:55.521Z,17.96
2023-05-04T10:33:58.204Z,18.23
2023-05-04T10:38:04.200Z,18.24
2023-05-04T10:42:10.169Z,18.49
2023-05-04T10:46:20.069Z,18.40
2023-05-04T10:50:22.812Z,18.68
2023-05-04T10:54:26.818Z,18.93
2023-05-04T10:58:30.181Z,19.13
2023-05-04T11:02:33.977Z,19.14
2023-05-04T11:06:38.430Z,19.63
2023-05-04T11:10:42.397Z,19.68
2023-05-04T11:14:45.011Z,19.59
2023-05-04T11:18:47.640Z,19.48
2023-05-04T11:22:50.773Z,19.59
2023-05-04T11:26:54.815Z,19.55
2023-05-04T11:30:57.548Z,19.67
2023-05-04T11:35:01.194Z,19.87
2023-05-04T11:39:08.131Z,20.48
2023-05-04T11:43:12.684Z,20.40
2023-05-04T11:47:15.943Z,20.12
2023-05-04T11:51:19.132Z,20.41
2023-05-04T11:55:28.926Z,20.64
2023-05-04T11:59:32.920Z,21.22
2023-05-04T12:03:52.259Z,21.40
2023-05-04T12:07:56.514Z,21.46
2023-05-04T12:11:59.128Z,20.96
2023-05-04T12:16:11.681Z,21.43
2023-05-04T12:20:23.837Z,21.36
2023-05-04T12:24:27.922Z,21.26
2023-05-04T12:28:31.200Z,21.36
2023-05-04T12:32:35.293Z,21.83
2023-05-04T12:36:37.932Z,22.36
2023-05-04T12:40:40.655Z,22.10
2023-05-04T12:44:43.283Z,22.04
2023-05-04T12:48:47.207Z,21.90
2023-05-04T12:52:49.802Z,21.46
2023-05-04T12:56:53.394Z,21.86
2023-05-04T13:00:56.581Z,22.04
2023-05-04T13:05:00.618Z,21.90
2023-05-04T13:09:06.005Z,22.01
2023-05-04T13:13:08.767Z,21.97
2023-05-04T13:17:11.961Z,21.87
2023-05-04T13:21:16.004Z,21.85
2023-05-04T13:25:18.886Z,21.69
2023-05-04T13:29:21.497Z,22.00
2023-05-04T13:33:29.813Z,22.22
2023-05-04T13:37:34.369Z,21.85
2023-05-04T13:41:36.917Z,21.71
2023-05-04T13:45:41.109Z,22.36
2023-05-04T13:49:44.939Z,22.02
2023-05-04T13:53:49.032Z,21.82
2023-05-04T13:57:54.108Z,22.31
2023-05-04T14:01:57.252Z,21.99
2023-05-04T14:05:59.900Z,22.28
2023-05-04T14:10:04.800Z,22.12
2023-05-04T14:14:07.426Z,21.83
2023-05-04T14:18:10.097Z,22.46
2023-05-04T14:22:12.741Z,22.68
2023-05-04T14:26:16.715Z,22.76
2023-05-04T14:30:19.392Z,22.94
2023-05-04T14:34:22.706Z,22.67
2023-05-04T14:38:25.375Z,22.38
2023-05-04T14:42:29.590Z,22.44
2023-05-04T14:46:32.387Z,21.92
2023-05-04T14:50:35.222Z,22.00
2023-05-04T14:54:37.798Z,21.53
2023-05-04T14:58:41.866Z,21.57
2023-05-04T15:02:44.566Z,21.47
2023-05-04T15:06:48.986Z,21.26
2023-05-04T15:10:53.078Z,21.07
2023-05-04T15:14:57.010Z,21.12
2023-05-04T15:18:59.797Z,21.21
2023-05-04T15:23:04.998Z,21.00
2023-05-04T15:27:07.482Z,20.97
2023-05-04T15:31:12.017Z,21.00
2023-05-04T15:35:14.744Z,21.10
2023-05-04T15:39:17.402Z,20.89
2023-05-04T15:43:20.019Z,20.22
2023-05-04T15:47:24.057Z,20.04
2023-05-04T15:51:26.887Z,20.30
2023-05-04T15:55:29.725Z,20.33
2023-05-04T15:59:32.488Z,20.30
2023-05-04T16:03:37.731Z,20.24
2023-05-04T16:07:40.775Z,20.30
2023-05-04T16:11:43.394Z,20.43
2023-05-04T16:15:46.009Z,20.24
2023-05-04T16:19:49.941Z,20.08
2023-05-04T16:23:52.551Z,20.26
2023-05-04T16:27:55.179Z,20.30
2023-05-04T16:31:57.827Z,20.23
2023-05-04T16:36:01.780Z,20.22
2023-05-04T16:40:10.904Z,20.39
2023-05-04T16:44:13.698Z,20.48
2023-05-04T16:48:16.667Z,20.63
2023-05-04T16:52:21.113Z,20.62
2023-05-04T16:56:24.421Z,20.58
2023-05-04T17:00:27.011Z,20.57
2023-05-04T17:04:31.180Z,20.52
2023-05-04T17:08:36.008Z,20.16
2023-05-04T17:12:42.626Z,20.08
2023-05-04T17:16:45.429Z,19.95
2023-05-04T17:20:48.074Z,19.77
2023-05-04T17:24:52.336Z,19.51
2023-05-04T17:28:55.054Z,19.32
2023-05-04T17:33:02.277Z,19.29
2023-05-04T17:37:05.082Z,19.08
2023-05-04T17:41:09.823Z,18.75
2023-05-04T17:45:13.013Z,18.46
2023-05-04T17:49:19.068Z,18.33
2023-05-04T17:53:21.671Z,17.75
2023-05-04T17:57:25.786Z,17.44
2023-05-04T18:01:28.479Z,17.58
2023-05-04T18:05:32.193Z,17.66
2023-05-04T18:09:34.891Z,17.61
2023-05-04T18:13:38.902Z,17.62
2023-05-04T18:17:41.673Z,17.50
2023-05-04T18:21:46.410Z,17.39
2023-05-04T18:25:51.507Z,17.28
2023-05-04T18:29:55.478Z,17.14
2023-05-04T18:34:00.513Z,16.95
2023-05-04T18:38:03.161Z,16.68
2023-05-04T18:42:05.889Z,16.40
2023-05-04T18:46:10.247Z,16.28
2023-05-04T18:50:12.977Z,16.13
2023-05-04T18:54:17.176Z,16.04
2023-05-04T18:58:19.761Z,15.87
2023-05-04T19:02:24.971Z,15.77
2023-05-04T19:06:27.700Z,15.54
2023-05-04T19:10:30.645Z,15.33
2023-05-04T19:14:33.430Z,15.17
2023-05-04T19:18:37.819Z,15.02
2023-05-04T19:22:40.843Z,14.80
2023-05-04T19:26:43.432Z,14.53
2023-05-04T19:30:46.081Z,14.23
2023-05-04T19:34:50.173Z,14.01
2023-05-04T19:38:52.913Z,13.87
2023-05-04T19:42:55.569Z,13.87
2023-05-04T19:46:58.181Z,13.79
2023-05-04T19:51:02.847Z,13.58
2023-05-04T19:55:06.258Z,13.42
2023-05-04T19:59:10.761Z,13.23
2023-05-04T20:03:13.443Z,13.13
2023-05-04T20:07:17.467Z,13.05
2023-05-04T20:11:21.108Z,12.85
2023-05-04T20:15:23.816Z,12.69
2023-05-04T20:19:26.682Z,12.61
2023-05-04T20:23:30.776Z,12.57
2023-05-04T20:27:33.492Z,12.50
2023-05-04T20:31:36.160Z,12.40
2023-05-04T20:35:41.602Z,12.30
2023-05-04T20:39:45.869Z,12.12
2023-05-04T20:43:48.669Z,11.98
2023-05-04T20:47:51.358Z,11.85
2023-05-04T20:51:53.991Z,11.71
2023-05-04T20:55:57.964Z,11.54
2023-05-04T21:00:00.652Z,11.41
2023-05-04T21:04:03.426Z,11.35
2023-05-04T21:08:06.185Z,11.39
2023-05-04T21:12:10.284Z,11.35
2023-05-04T21:16:13.844Z,11.27
2023-05-04T21:20:17.207Z,11.16
2023-05-04T21:24:20.494Z,11.09
2023-05-04T21:28:24.455Z,11.08
2023-05-04T21:32:27.383Z,10.98
2023-05-04T21:36:31.833Z,10.79
2023-05-04T21:40:34.500Z,10.73
2023-05-04T21:44:38.455Z,10.64
2023-05-04T21:48:41.625Z,10.56
2023-05-04T21:52:44.215Z,10.49
2023-05-04T21:56:46.804Z,10.41
2023-05-04T22:00:50.790Z,10.22
2023-05-04T22:04:53.429Z,10.08
2023-05-04T22:08:56.044Z,10.06
2023-05-04T22:12:58.654Z,9.99
2023-05-04T22:17:02.688Z,9.96
2023-05-04T22:21:05.428Z,9.97
2023-05-04T22:25:08.467Z,9.92
2023-05-04T22:29:11.128Z,9.76
2023-05-04T22:33:15.515Z,9.60
2023-05-04T22:37:18.104Z,9.45
2023-05-04T22:41:21.079Z,9.39
2023-05-04T22:45:23.726Z,9.29
2023-05-04T22:49:27.718Z,9.27
2023-05-04T22:53:30.351Z,9.29
2023-05-04T22:57:33.060Z,9.06
2023-05-04T23:01:36.004Z,8.97
2023-05-04T23:05:40.013Z,8.97
2023-05-04T23:09:43.393Z,9.01
2023-05-04T23:13:45.988Z,9.04
2023-05-04T23:17:48.622Z,9.08
2023-05-04T23:21:52.636Z,9.05
2023-05-04T23:25:55.391Z,9.02
2023-05-04T23:29:57.993Z,8.93
2023-05-04T23:34:00.611Z,8.74
2023-05-04T23:38:05.588Z,8.66
2023-05-04T23:42:08.210Z,8.59
2023-05-04T23:46:10.903Z,8.60
2023-05-04T23:50:13.748Z,8.52
2023-05-04T23:54:17.737Z,8.46
2023-05-04T23:58:20.405Z,8.32
